Delta Virtual Airport Information Service

Copenhagen Airport

ICAO: EKCH Country: Denmark
Latitude: 55.6084 Longitude: 12.6454
Latest Arrival : IBK3675 (3) (GCTS-EKCH) Latest Departure : JZA883 (EKCH-CYYZ)


WX CaptureLIVE
Data provided by noaa.gov | Fetched at 05:44:21

METAR : EKCH 311020Z AUTO 05011KT 9999 NCD 20/06 Q1027 NOSIG

TAF : EKCH 310501Z 3106/0106 03012KT 9999 FEW040 BECMG 3113/3116 11006KT


Runway Data for EKCH
Data provided by openaviationdata.com

Runway ID Mag Var Hdg Length Elevation Surface ILS Freq ILS Id ILS Slope
04L 2 38° 11694 ft 17 ft Asphalt 110.5 CH 3
04R 2 38° 10812 ft 17 ft Asphalt 109.3 NE 3
12 2 120° 8728 ft 17 ft Asphalt 109.9 KA 3
22L 2 218° 10812 ft 17 ft Asphalt 109.5 OXS 3
22R 2 218° 11694 ft 17 ft Asphalt 110.9 KLK 3
30 2 300° 8728 ft 17 ft Asphalt 108.9 OY 3

Copenhagen Airport, Denmark
Use only for reference purposes



Not for navigational purposes.